createdAt,value
2023-01-01T00:01:20.127Z,100614.59
2023-01-01T00:03:45.292Z,100613.06
2023-01-01T00:06:09.431Z,100605.44
2023-01-01T00:08:32.988Z,100601.41
2023-01-01T00:10:55.451Z,100613.94
2023-01-01T00:13:19.051Z,100603.94
2023-01-01T00:15:42.562Z,100606.66
2023-01-01T00:18:06.396Z,100606.47
2023-01-01T00:20:35.212Z,100609.69
2023-01-01T00:22:59.129Z,100608.50
2023-01-01T00:25:22.729Z,100612.72
2023-01-01T00:27:46.356Z,100619.13
2023-01-01T00:30:12.229Z,100623.91
2023-01-01T00:32:35.890Z,100626.75
2023-01-01T00:34:59.900Z,100623.34
2023-01-01T00:37:24.958Z,100633.56
2023-01-01T00:39:48.495Z,100632.72
2023-01-01T00:42:12.125Z,100632.38
2023-01-01T00:44:35.642Z,100635.78
2023-01-01T00:46:59.267Z,100637.78
2023-01-01T00:49:22.843Z,100626.25
2023-01-01T00:51:46.430Z,100638.56
2023-01-01T00:54:11.479Z,100638.56
2023-01-01T00:56:35.429Z,100644.34
2023-01-01T00:59:01.404Z,100647.41
2023-01-01T01:01:25.708Z,100653.69
2023-01-01T01:03:49.945Z,100650.09
2023-01-01T01:06:15.590Z,100649.56
2023-01-01T01:08:41.328Z,100651.94
2023-01-01T01:11:09.346Z,100645.28
2023-01-01T01:13:32.951Z,100651.47
2023-01-01T01:15:56.574Z,100659.22
2023-01-01T01:18:20.071Z,100653.63
2023-01-01T01:20:52.635Z,100655.09
2023-01-01T01:23:16.173Z,100658.50
2023-01-01T01:25:39.746Z,100657.72
2023-01-01T01:28:04.944Z,100663.13
2023-01-01T01:30:28.547Z,100655.84
2023-01-01T01:32:52.120Z,100651.09
2023-01-01T01:35:15.645Z,100654.53
2023-01-01T01:37:39.271Z,100664.25
2023-01-01T01:40:02.823Z,100660.88
2023-01-01T01:42:26.528Z,100658.16
2023-01-01T01:44:59.200Z,100666.63
2023-01-01T01:47:29.890Z,100670.75
2023-01-01T01:49:57.582Z,100660.22
2023-01-01T01:52:21.155Z,100662.63
2023-01-01T01:54:44.767Z,100663.31
2023-01-01T01:57:10.998Z,100661.69
2023-01-01T01:59:38.333Z,100664.59
2023-01-01T02:02:03.831Z,100664.44
2023-01-01T02:04:27.714Z,100665.28
2023-01-01T02:06:54.244Z,100671.72
2023-01-01T02:09:18.395Z,100670.00
2023-01-01T02:11:41.923Z,100672.41
2023-01-01T02:14:06.104Z,100670.59
2023-01-01T02:16:38.039Z,100673.13
2023-01-01T02:19:13.972Z,100674.59
2023-01-01T02:21:50.858Z,100668.91
2023-01-01T02:25:06.024Z,100663.94
2023-01-01T02:27:45.881Z,100666.19
2023-01-01T02:30:12.112Z,100673.06
2023-01-01T02:32:42.065Z,100666.34
2023-01-01T02:35:25.279Z,100660.53
2023-01-01T02:37:50.568Z,100662.53
2023-01-01T02:40:14.149Z,100650.66
2023-01-01T02:42:37.832Z,100644.28
2023-01-01T02:45:01.956Z,100651.03
2023-01-01T02:47:26.939Z,100649.81
2023-01-01T02:49:58.790Z,100634.38
2023-01-01T02:52:45.751Z,100633.81
2023-01-01T02:55:24.777Z,100648.22
2023-01-01T02:57:53.748Z,100637.16
2023-01-01T03:00:28.021Z,100637.97
2023-01-01T03:03:10.607Z,100646.41
2023-01-01T03:06:02.609Z,100650.78
2023-01-01T03:08:32.686Z,100652.31
2023-01-01T03:11:05.529Z,100653.22
2023-01-01T03:13:38.712Z,100659.06
2023-01-01T03:16:06.277Z,100661.91
2023-01-01T03:18:40.344Z,100656.81
2023-01-01T03:21:06.603Z,100664.06
2023-01-01T03:23:37.175Z,100664.19
2023-01-01T03:26:06.284Z,100670.16
2023-01-01T03:28:35.401Z,100674.88
2023-01-01T03:31:00.060Z,100677.34
2023-01-01T03:33:31.409Z,100667.66
2023-01-01T03:35:59.243Z,100664.59
2023-01-01T03:38:28.570Z,100657.78
2023-01-01T03:40:59.486Z,100660.16
2023-01-01T03:43:35.307Z,100658.53
2023-01-01T03:46:01.026Z,100668.28
2023-01-01T03:48:24.612Z,100673.19
2023-01-01T03:51:03.545Z,100674.41
2023-01-01T03:53:39.970Z,100678.72
2023-01-01T03:56:15.005Z,100680.16
2023-01-01T03:58:44.789Z,100689.75
2023-01-01T04:01:15.418Z,100696.00
2023-01-01T04:03:41.589Z,100702.63
2023-01-01T04:06:08.043Z,100707.97
2023-01-01T04:08:34.370Z,100707.81
2023-01-01T04:11:21.987Z,100702.88
2023-01-01T04:13:48.830Z,100708.38
2023-01-01T04:16:12.395Z,100724.75
2023-01-01T04:18:36.018Z,100723.97
2023-01-01T04:20:59.505Z,100732.56
2023-01-01T04:23:24.488Z,100734.03
2023-01-01T04:25:48.705Z,100735.44
2023-01-01T04:28:12.291Z,100727.38
2023-01-01T04:32:58.910Z,100735.47
2023-01-01T04:35:22.494Z,100729.94
2023-01-01T04:37:46.799Z,100730.59
2023-01-01T04:40:14.174Z,100723.22
2023-01-01T04:42:38.026Z,100732.31
2023-01-01T04:45:01.805Z,100729.00
2023-01-01T04:47:26.911Z,100737.53
2023-01-01T04:49:50.422Z,100738.28
2023-01-01T04:52:14.045Z,100735.09
2023-01-01T04:54:37.639Z,100738.97
2023-01-01T04:57:02.640Z,100740.13
2023-01-01T04:59:26.186Z,100742.13
2023-01-01T05:01:50.010Z,100738.28
2023-01-01T05:04:15.791Z,100738.81
2023-01-01T05:06:39.521Z,100741.31
2023-01-01T05:09:04.133Z,100741.84
2023-01-01T05:11:29.911Z,100741.94
2023-01-01T05:13:58.028Z,100750.81
2023-01-01T05:16:24.413Z,100752.94
2023-01-01T05:18:48.977Z,100751.78
2023-01-01T05:21:15.703Z,100738.13
2023-01-01T05:23:39.300Z,100758.78
2023-01-01T05:26:10.974Z,100755.91
2023-01-01T05:28:35.264Z,100756.06
2023-01-01T05:31:00.317Z,100754.09
2023-01-01T05:33:23.911Z,100759.69
2023-01-01T05:35:47.779Z,100760.31
2023-01-01T05:38:11.614Z,100753.34
2023-01-01T05:40:35.167Z,100752.53
2023-01-01T05:42:58.735Z,100744.50
2023-01-01T05:45:22.232Z,100753.88
2023-01-01T05:47:47.216Z,100754.41
2023-01-01T05:52:33.891Z,100759.19
2023-01-01T05:54:58.389Z,100763.81
2023-01-01T05:57:22.039Z,100755.84
2023-01-01T05:59:45.559Z,100747.44
2023-01-01T06:02:09.263Z,100753.06
2023-01-01T06:04:34.291Z,100764.25
2023-01-01T06:06:57.899Z,100770.00
2023-01-01T06:09:21.418Z,100758.84
2023-01-01T06:11:44.958Z,100774.41
2023-01-01T06:14:08.536Z,100776.06
2023-01-01T06:16:32.973Z,100765.13
2023-01-01T06:18:56.603Z,100776.13
2023-01-01T06:21:25.019Z,100777.06
2023-01-01T06:23:49.003Z,100792.59
2023-01-01T06:26:15.529Z,100790.44
2023-01-01T06:28:39.658Z,100778.31
2023-01-01T06:31:03.976Z,100785.63
2023-01-01T06:33:27.509Z,100786.88
2023-01-01T06:35:51.119Z,100790.47
2023-01-01T06:38:16.070Z,100796.88
2023-01-01T06:40:39.612Z,100801.81
2023-01-01T06:43:03.148Z,100801.19
2023-01-01T06:45:26.758Z,100805.59
2023-01-01T06:47:50.302Z,100804.00
2023-01-01T06:50:14.145Z,100802.63
2023-01-01T06:52:37.684Z,100796.03
2023-01-01T06:55:02.656Z,100788.75
2023-01-01T06:57:26.516Z,100798.19
2023-01-01T06:59:50.042Z,100808.50
2023-01-01T07:02:14.060Z,100797.59
2023-01-01T07:04:37.797Z,100812.41
2023-01-01T07:07:01.923Z,100813.66
2023-01-01T07:09:25.522Z,100820.47
2023-01-01T07:11:50.425Z,100818.38
2023-01-01T07:14:14.000Z,100830.34
2023-01-01T07:16:38.255Z,100826.66
2023-01-01T07:19:02.011Z,100831.69
2023-01-01T07:21:34.147Z,100834.56
2023-01-01T07:23:58.463Z,100853.78
2023-01-01T07:26:22.077Z,100846.28
2023-01-01T07:28:47.417Z,100855.31
2023-01-01T07:31:11.613Z,100853.69
2023-01-01T07:33:35.239Z,100861.28
2023-01-01T07:35:58.938Z,100859.34
2023-01-01T07:38:22.562Z,100857.75
2023-01-01T07:40:46.113Z,100845.09
2023-01-01T07:43:10.137Z,100860.13
2023-01-01T07:45:35.437Z,100861.19
2023-01-01T07:48:00.372Z,100875.16
2023-01-01T07:50:25.789Z,100878.75
2023-01-01T07:52:49.483Z,100877.97
2023-01-01T07:55:15.002Z,100880.13
2023-01-01T07:57:38.606Z,100882.66
2023-01-01T08:00:02.169Z,100890.84
2023-01-01T08:02:37.424Z,100890.19
2023-01-01T08:05:01.092Z,100880.22
2023-01-01T08:07:24.634Z,100893.47
2023-01-01T08:09:48.255Z,100882.47
2023-01-01T08:12:11.806Z,100890.25
2023-01-01T08:14:35.371Z,100889.22
2023-01-01T08:16:58.924Z,100886.00
2023-01-01T08:19:23.878Z,100889.22
2023-01-01T08:21:47.381Z,100891.31
2023-01-01T08:24:11.179Z,100892.31
2023-01-01T08:26:37.198Z,100901.81
2023-01-01T08:29:02.752Z,100910.66
2023-01-01T08:31:27.179Z,100914.50
2023-01-01T08:33:50.948Z,100916.69
2023-01-01T08:36:17.014Z,100922.88
2023-01-01T08:38:40.650Z,100928.88
2023-01-01T08:41:04.140Z,100933.09
2023-01-01T08:43:27.730Z,100936.72
2023-01-01T08:45:51.231Z,100928.44
2023-01-01T08:48:14.820Z,100925.72
2023-01-01T08:50:38.416Z,100943.81
2023-01-01T08:53:03.458Z,100937.34
2023-01-01T08:55:27.250Z,100927.56
2023-01-01T08:57:50.847Z,100922.13
2023-01-01T09:00:16.431Z,100942.50
2023-01-01T09:02:40.115Z,100942.50
2023-01-01T09:05:03.781Z,100944.31
2023-01-01T09:07:27.361Z,100946.00
2023-01-01T09:09:52.265Z,100944.06
2023-01-01T09:12:17.879Z,100960.31
2023-01-01T09:14:41.380Z,100967.97
2023-01-01T09:17:04.946Z,100969.59
2023-01-01T09:19:28.855Z,100967.66
2023-01-01T09:21:53.128Z,100988.13
2023-01-01T09:24:16.701Z,100988.00
2023-01-01T09:26:41.662Z,100975.31
2023-01-01T09:29:05.384Z,100996.06
2023-01-01T09:31:29.003Z,100992.56
2023-01-01T09:33:53.334Z,100988.06
2023-01-01T09:36:28.794Z,100986.94
2023-01-01T09:38:52.787Z,100988.84
2023-01-01T09:41:24.119Z,101000.47
2023-01-01T09:43:59.083Z,100995.13
2023-01-01T09:46:31.500Z,101007.53
2023-01-01T09:48:59.015Z,101004.72
2023-01-01T09:51:24.847Z,101000.84
2023-01-01T09:53:55.687Z,101003.03
2023-01-01T09:56:25.202Z,101004.41
2023-01-01T09:58:50.140Z,101009.44
2023-01-01T10:01:37.203Z,101003.34
2023-01-01T10:04:18.426Z,101004.19
2023-01-01T10:06:51.522Z,101005.19
2023-01-01T10:09:24.534Z,101017.28
2023-01-01T10:11:57.564Z,101018.66
2023-01-01T10:14:31.932Z,101028.25
2023-01-01T10:16:58.272Z,101029.59
2023-01-01T10:19:32.549Z,101027.19
2023-01-01T10:22:01.301Z,101021.28
2023-01-01T10:24:38.152Z,101026.94
2023-01-01T10:27:04.055Z,101025.25
2023-01-01T10:29:38.057Z,101043.91
2023-01-01T10:32:18.328Z,101038.09
2023-01-01T10:34:41.962Z,101044.28
2023-01-01T10:37:05.821Z,101048.38
2023-01-01T10:39:30.200Z,101044.38
2023-01-01T10:41:55.117Z,101050.63
2023-01-01T10:44:27.625Z,101050.88
2023-01-01T10:46:58.788Z,101051.25
2023-01-01T10:49:22.386Z,101057.38
2023-01-01T10:51:48.189Z,101051.09
2023-01-01T10:54:34.149Z,101047.59
2023-01-01T10:56:57.775Z,101043.59
2023-01-01T10:59:37.207Z,101061.78
2023-01-01T11:02:19.220Z,101061.81
2023-01-01T11:04:43.243Z,101086.28
2023-01-01T11:07:08.649Z,101093.19
2023-01-01T11:09:32.861Z,101085.81
2023-01-01T11:12:07.168Z,101088.03
2023-01-01T11:14:40.371Z,101087.50
2023-01-01T11:17:04.081Z,101099.84
2023-01-01T11:19:33.249Z,101098.81
2023-01-01T11:21:56.994Z,101103.09
2023-01-01T11:24:25.456Z,101090.91
2023-01-01T11:26:54.659Z,101078.91
2023-01-01T11:29:26.592Z,101088.56
2023-01-01T11:31:50.598Z,101084.25
2023-01-01T11:34:32.769Z,101077.97
2023-01-01T11:37:17.121Z,101084.31
2023-01-01T11:39:44.517Z,101075.91
2023-01-01T11:42:08.491Z,101065.81
2023-01-01T11:44:38.518Z,101075.28
2023-01-01T11:47:02.357Z,101083.72
2023-01-01T11:49:31.513Z,101087.03
2023-01-01T11:51:55.097Z,101100.38
2023-01-01T11:54:32.814Z,101102.78
2023-01-01T11:57:05.400Z,101089.38
2023-01-01T11:59:40.815Z,101099.84
2023-01-01T12:02:10.348Z,101100.84
2023-01-01T12:04:44.333Z,101103.53
2023-01-01T12:07:09.852Z,101112.75
2023-01-01T12:09:42.205Z,101114.84
2023-01-01T12:12:14.542Z,101119.19
2023-01-01T12:14:49.472Z,101119.13
2023-01-01T12:17:21.634Z,101113.06
2023-01-01T12:19:58.271Z,101112.78
2023-01-01T12:22:22.164Z,101117.41
2023-01-01T12:24:47.563Z,101108.28
2023-01-01T12:27:22.979Z,101109.81
2023-01-01T12:30:06.296Z,101103.78
2023-01-01T12:32:45.113Z,101098.41
2023-01-01T12:35:23.219Z,101091.28
2023-01-01T12:38:00.370Z,101097.13
2023-01-01T12:40:36.337Z,101088.72
2023-01-01T12:43:05.228Z,101095.19
2023-01-01T12:46:16.523Z,101093.63
2023-01-01T12:49:09.036Z,101099.44
2023-01-01T12:51:46.211Z,101086.97
2023-01-01T12:55:23.825Z,101093.31
2023-01-01T12:57:53.240Z,101096.72
2023-01-01T13:00:20.084Z,101093.34
2023-01-01T13:02:51.448Z,101085.41
2023-01-01T13:05:22.804Z,101095.97
2023-01-01T13:07:53.885Z,101097.81
2023-01-01T13:10:26.954Z,101097.50
2023-01-01T13:12:51.823Z,101091.31
2023-01-01T13:15:49.617Z,101101.22
2023-01-01T13:18:33.571Z,101110.44
2023-01-01T13:21:07.185Z,101120.22
2023-01-01T13:24:01.419Z,101130.22
2023-01-01T13:26:40.062Z,101143.44
2023-01-01T13:29:39.400Z,101154.44
2023-01-01T13:32:08.417Z,101149.66
2023-01-01T13:35:16.887Z,101155.34
2023-01-01T13:37:48.541Z,101166.72
2023-01-01T13:40:53.997Z,101168.63
2023-01-01T13:43:32.162Z,101186.59
2023-01-01T13:46:13.906Z,101195.81
2023-01-01T13:49:06.848Z,101190.63
2023-01-01T13:52:08.256Z,101179.84
2023-01-01T13:55:17.099Z,101184.31
2023-01-01T13:58:39.960Z,101199.06
2023-01-01T14:01:49.664Z,101199.13
2023-01-01T14:04:32.125Z,101208.25
2023-01-01T14:06:57.133Z,101220.31
2023-01-01T14:09:21.885Z,101209.97
2023-01-01T14:11:45.457Z,101212.75
2023-01-01T14:14:28.648Z,101197.63
2023-01-01T14:16:53.580Z,101213.81
2023-01-01T14:19:17.400Z,101208.66
2023-01-01T14:21:41.074Z,101209.81
2023-01-01T14:24:08.441Z,101215.34
2023-01-01T14:26:33.882Z,101215.81
2023-01-01T14:28:59.151Z,101237.75
2023-01-01T14:31:28.522Z,101232.06
2023-01-01T14:33:52.061Z,101227.75
2023-01-01T14:36:23.840Z,101238.03
2023-01-01T14:38:49.603Z,101242.63
2023-01-01T14:41:20.961Z,101244.56
2023-01-01T14:43:46.842Z,101243.84
2023-01-01T14:46:17.624Z,101253.44
2023-01-01T14:48:46.344Z,101254.41
2023-01-01T14:51:15.382Z,101240.59
2023-01-01T14:53:39.007Z,101246.97
2023-01-01T14:56:07.027Z,101243.19
2023-01-01T14:58:31.577Z,101263.09
2023-01-01T15:00:55.676Z,101255.69
2023-01-01T15:03:23.721Z,101260.28
2023-01-01T15:06:00.265Z,101263.69
2023-01-01T15:08:26.923Z,101267.97
2023-01-01T15:10:51.268Z,101272.94
2023-01-01T15:13:20.510Z,101281.78
2023-01-01T15:15:45.959Z,101283.09
2023-01-01T15:18:41.436Z,101296.75
2023-01-01T15:21:13.438Z,101297.63
2023-01-01T15:23:38.212Z,101303.19
2023-01-01T15:26:01.732Z,101310.16
2023-01-01T15:28:25.426Z,101319.44
2023-01-01T15:30:54.791Z,101322.28
2023-01-01T15:33:18.719Z,101323.28
2023-01-01T15:35:44.062Z,101321.56
2023-01-01T15:38:18.910Z,101341.69
2023-01-01T15:40:45.605Z,101342.38
2023-01-01T15:43:20.022Z,101344.34
2023-01-01T15:45:53.412Z,101357.50
2023-01-01T15:48:23.240Z,101347.19
2023-01-01T15:51:03.739Z,101355.03
2023-01-01T15:53:31.965Z,101349.66
2023-01-01T15:55:59.056Z,101354.06
2023-01-01T15:58:27.433Z,101344.59
2023-01-01T16:00:58.715Z,101359.53
2023-01-01T16:03:25.340Z,101365.25
2023-01-01T16:05:53.330Z,101365.94
2023-01-01T16:08:17.392Z,101361.22
2023-01-01T16:10:42.698Z,101366.63
2023-01-01T16:13:06.238Z,101365.34
2023-01-01T16:15:29.909Z,101362.16
2023-01-01T16:17:54.298Z,101362.44
2023-01-01T16:20:19.958Z,101357.19
2023-01-01T16:22:43.698Z,101353.31
2023-01-01T16:25:15.658Z,101340.31
2023-01-01T16:27:40.659Z,101349.69
2023-01-01T16:30:06.903Z,101351.28
2023-01-01T16:32:30.497Z,101362.22
2023-01-01T16:34:53.990Z,101360.44
2023-01-01T16:37:22.499Z,101360.69
2023-01-01T16:39:46.274Z,101357.09
2023-01-01T16:42:12.593Z,101363.78
2023-01-01T16:44:38.787Z,101369.06
2023-01-01T16:47:02.355Z,101369.81
2023-01-01T16:49:25.900Z,101368.00
2023-01-01T16:51:50.699Z,101367.56
2023-01-01T16:54:15.169Z,101370.28
2023-01-01T16:56:39.108Z,101371.66
2023-01-01T16:59:03.693Z,101369.72
2023-01-01T17:01:28.958Z,101379.78
2023-01-01T17:03:53.219Z,101370.81
2023-01-01T17:06:17.225Z,101387.97
2023-01-01T17:08:41.142Z,101366.94
2023-01-01T17:11:10.049Z,101376.22
2023-01-01T17:13:36.025Z,101380.03
2023-01-01T17:15:59.917Z,101371.47
2023-01-01T17:18:55.248Z,101382.00
2023-01-01T17:21:11.216Z,101387.25
2023-01-01T17:23:36.631Z,101368.91
2023-01-01T17:26:08.484Z,101370.59
2023-01-01T17:28:32.058Z,101381.50
2023-01-01T17:31:07.007Z,101380.16
2023-01-01T17:33:32.169Z,101379.03
2023-01-01T17:35:55.659Z,101378.31
2023-01-01T17:38:19.268Z,101376.59
2023-01-01T17:40:42.759Z,101378.19
2023-01-01T17:43:06.365Z,101374.28
2023-01-01T17:45:29.875Z,101382.97
2023-01-01T17:47:54.195Z,101376.72
2023-01-01T17:50:19.804Z,101372.78
2023-01-01T17:52:43.737Z,101384.53
2023-01-01T17:55:08.777Z,101389.56
2023-01-01T17:57:32.424Z,101381.97
2023-01-01T17:59:59.014Z,101382.84
2023-01-01T18:02:22.831Z,101382.09
2023-01-01T18:04:46.434Z,101388.22
2023-01-01T18:07:12.551Z,101382.22
2023-01-01T18:09:38.309Z,101390.53
2023-01-01T18:12:02.080Z,101384.31
2023-01-01T18:14:26.326Z,101386.47
2023-01-01T18:16:49.919Z,101392.13
2023-01-01T18:19:13.462Z,101380.84
2023-01-01T18:21:37.293Z,101378.16
2023-01-01T18:24:02.604Z,101373.50
2023-01-01T18:26:29.994Z,101378.78
2023-01-01T18:28:54.184Z,101381.91
2023-01-01T18:31:18.468Z,101374.38
2023-01-01T18:33:42.793Z,101374.94
2023-01-01T18:36:09.313Z,101377.72
2023-01-01T18:38:33.088Z,101378.59
2023-01-01T18:41:14.271Z,101378.94
2023-01-01T18:43:37.870Z,101380.88
2023-01-01T18:46:01.393Z,101382.47
2023-01-01T18:48:24.954Z,101390.69
2023-01-01T18:50:48.516Z,101397.03
2023-01-01T18:53:19.812Z,101395.50
2023-01-01T18:55:43.415Z,101396.19
2023-01-01T18:58:27.996Z,101391.91
2023-01-01T19:00:52.783Z,101399.84
2023-01-01T19:03:19.183Z,101398.38
2023-01-01T19:05:44.840Z,101408.63
2023-01-01T19:08:18.039Z,101410.13
2023-01-01T19:10:45.481Z,101398.13
2023-01-01T19:13:19.579Z,101404.84
2023-01-01T19:15:49.768Z,101397.34
2023-01-01T19:18:19.420Z,101382.97
2023-01-01T19:20:42.964Z,101390.88
2023-01-01T19:23:20.121Z,101387.50
2023-01-01T19:25:43.768Z,101390.13
2023-01-01T19:28:35.712Z,101391.75
2023-01-01T19:31:01.754Z,101393.56
2023-01-01T19:33:28.005Z,101394.66
2023-01-01T19:35:51.646Z,101394.78
2023-01-01T19:38:15.170Z,101393.22
2023-01-01T19:40:38.776Z,101392.72
2023-01-01T19:43:03.678Z,101391.97
2023-01-01T19:45:27.219Z,101388.78
2023-01-01T19:47:52.258Z,101388.78
2023-01-01T19:50:15.968Z,101387.91
2023-01-01T19:52:40.351Z,101377.81
2023-01-01T19:55:06.411Z,101381.06
2023-01-01T19:57:30.040Z,101379.34
2023-01-01T19:59:53.631Z,101378.81
2023-01-01T20:02:44.768Z,101372.63
2023-01-01T20:05:02.337Z,101377.94
2023-01-01T20:07:25.974Z,101373.31
2023-01-01T20:09:49.567Z,101372.22
2023-01-01T20:12:13.081Z,101362.78
2023-01-01T20:14:37.986Z,101365.56
2023-01-01T20:17:01.571Z,101370.50
2023-01-01T20:19:25.125Z,101370.84
2023-01-01T20:22:08.321Z,101356.72
2023-01-01T20:24:31.918Z,101349.59
2023-01-01T20:26:56.457Z,101351.97
2023-01-01T20:29:21.785Z,101348.50
2023-01-01T20:31:45.394Z,101345.19
2023-01-01T20:34:09.344Z,101346.63
2023-01-01T20:36:50.212Z,101338.69
2023-01-01T20:39:15.326Z,101335.78
2023-01-01T20:41:38.864Z,101333.72
2023-01-01T20:44:02.465Z,101336.28
2023-01-01T20:46:26.036Z,101345.59
2023-01-01T20:48:49.976Z,101344.50
2023-01-01T20:51:13.503Z,101339.84
2023-01-01T20:53:37.157Z,101342.91
2023-01-01T20:56:02.117Z,101338.50
2023-01-01T20:58:25.720Z,101336.94
2023-01-01T21:00:49.466Z,101337.28
2023-01-01T21:03:13.147Z,101332.38
2023-01-01T21:05:36.732Z,101329.09
2023-01-01T21:08:00.326Z,101335.69
2023-01-01T21:10:23.915Z,101346.50
2023-01-01T21:12:50.274Z,101349.19
2023-01-01T21:15:16.547Z,101347.34
2023-01-01T21:17:40.147Z,101342.78
2023-01-01T21:20:03.877Z,101337.06
2023-01-01T21:22:28.981Z,101331.41
2023-01-01T21:24:55.467Z,101328.97
2023-01-01T21:27:30.691Z,101318.06
2023-01-01T21:29:58.769Z,101318.19
2023-01-01T21:32:25.247Z,101319.41
2023-01-01T21:34:50.828Z,101327.38
2023-01-01T21:37:42.295Z,101332.88
2023-01-01T21:40:35.684Z,101334.22
2023-01-01T21:43:24.681Z,101330.94
2023-01-01T21:45:50.164Z,101320.41
2023-01-01T21:48:19.142Z,101315.84
2023-01-01T21:50:45.164Z,101337.03
2023-01-01T21:53:15.852Z,101328.00
2023-01-01T21:55:53.509Z,101338.88
2023-01-01T21:58:37.787Z,101337.31
2023-01-01T22:01:12.866Z,101351.88
2023-01-01T22:03:36.593Z,101348.09
2023-01-01T22:06:00.155Z,101355.19
2023-01-01T22:08:26.280Z,101348.19
2023-01-01T22:10:49.873Z,101343.31
2023-01-01T22:13:18.708Z,101341.44
2023-01-01T22:15:43.175Z,101349.41
2023-01-01T22:18:24.301Z,101347.09
2023-01-01T22:20:49.552Z,101347.72
2023-01-01T22:23:32.807Z,101347.34
2023-01-01T22:25:56.585Z,101331.16
2023-01-01T22:28:23.964Z,101329.94
2023-01-01T22:30:47.715Z,101332.00
2023-01-01T22:33:19.086Z,101333.63
2023-01-01T22:35:42.743Z,101323.94
2023-01-01T22:38:09.267Z,101328.22
2023-01-01T22:40:36.071Z,101317.72
2023-01-01T22:43:03.927Z,101325.53
2023-01-01T22:45:28.168Z,101328.22
2023-01-01T22:47:51.686Z,101321.09
2023-01-01T22:50:24.232Z,101314.97
2023-01-01T22:52:47.863Z,101316.41
2023-01-01T22:55:11.448Z,101303.22
2023-01-01T22:57:35.015Z,101307.88
2023-01-01T22:59:58.585Z,101302.47
2023-01-01T23:02:22.212Z,101298.44
2023-01-01T23:04:45.789Z,101303.53
2023-01-01T23:07:14.426Z,101282.16
2023-01-01T23:09:37.977Z,101286.06
2023-01-01T23:12:01.577Z,101282.63
2023-01-01T23:14:43.280Z,101274.16
2023-01-01T23:17:06.960Z,101283.22
2023-01-01T23:19:30.533Z,101272.44
2023-01-01T23:21:54.593Z,101266.31
2023-01-01T23:24:24.611Z,101267.78
2023-01-01T23:26:49.693Z,101261.28
2023-01-01T23:29:14.656Z,101261.50
2023-01-01T23:31:39.458Z,101265.09
2023-01-01T23:34:03.218Z,101255.53
2023-01-01T23:36:27.891Z,101255.75
2023-01-01T23:38:51.577Z,101246.94
2023-01-01T23:41:16.563Z,101244.06
2023-01-01T23:43:43.561Z,101237.53
2023-01-01T23:46:07.761Z,101241.22
2023-01-01T23:48:31.504Z,101236.78
2023-01-01T23:50:55.139Z,101232.00
2023-01-01T23:53:18.669Z,101221.44
2023-01-01T23:55:42.884Z,101222.22
2023-01-01T23:58:07.819Z,101224.00
